Time;durP1;ratioP1;P1;durP2;ratioP2;P2;SDS_P1;SDS_P2;PMS_P1;PMS_P2;Temp;Humidity;BMP_temperature;BMP_pressure;BME280_temperature;BME280_humidity;BME280_pressure;Samples;Min_cycle;Max_cycle;Signal;HPM_P1;HPM_P2
2022/11/07 00:00:00;;;;;;;;;;;;;;;3.24;100.00;100573.69;3057323;19;19945;-50
2022/11/07 00:01:17;;;;;;;;;;;;;;;3.30;100.00;100577.03;3057507;19;19923;-48
2022/11/07 00:02:19;;;;;;;;;;;;;;;3.34;100.00;100570.75;3057021;19;20356;-48
2022/11/07 00:03:23;;;;;;;;;;;;;;;3.36;100.00;100572.44;3057367;19;19918;-50
2022/11/07 00:04:28;;;;;;;;;;;;;;;3.42;100.00;100568.75;3057397;19;19937;-49
2022/11/07 00:05:33;;;;;;;;;;;;;;;3.47;100.00;100572.13;3056284;19;19926;-49
2022/11/07 00:06:36;;;;;;;;;;;;;;;3.52;100.00;100572.81;3056141;19;20023;-48
2022/11/07 00:07:40;;;;;;;;;;;;;;;3.58;100.00;100564.72;3057105;19;19923;-48
2022/11/07 00:08:42;;;;;;;;;;;;;;;3.62;100.00;100558.44;3056745;19;20756;-49
2022/11/07 00:09:47;;;;;;;;;;;;;;;3.69;100.00;100564.38;3057028;19;19919;-49
2022/11/07 00:10:52;;;;;;;;;;;;;;;3.74;100.00;100554.53;3056986;19;19949;-49
2022/11/07 00:11:57;;;;;;;;;;;;;;;3.79;100.00;100556.09;3057245;19;20355;-49
2022/11/07 00:13:02;;;;;;;;;;;;;;;3.85;100.00;100560.34;3056096;19;19923;-50
2022/11/07 00:14:03;;;;;;;;;;;;;;;3.92;100.00;100554.78;3056954;19;19922;-49
2022/11/07 00:15:08;;;;;;;;;;;;;;;3.97;100.00;100552.88;3057063;19;19918;-50
2022/11/07 00:16:10;;;;;;;;;;;;;;;4.04;100.00;100550.00;3056764;19;19941;-49
2022/11/07 00:17:14;;;;;;;;;;;;;;;4.09;100.00;100546.31;3057046;19;19914;-50
2022/11/07 00:18:16;;;;;;;;;;;;;;;4.14;100.00;100543.50;3056781;19;19919;-50
2022/11/07 00:19:22;;;;;;;;;;;;;;;4.17;100.00;100546.91;3057178;19;19923;-48
2022/11/07 00:20:23;;;;;;;;;;;;;;;4.22;100.00;100536.19;3057284;19;19922;-50
2022/11/07 00:21:28;;;;;;;;;;;;;;;4.26;100.00;100545.72;3057182;19;19937;-48
2022/11/07 00:22:30;;;;;;;;;;;;;;;4.32;100.00;100537.59;3057095;19;20303;-50
2022/11/07 00:23:34;;;;;;;;;;;;;;;4.37;100.00;100533.00;3056624;19;20002;-50
2022/11/07 00:24:36;;;;;;;;;;;;;;;4.40;100.00;100526.75;3056712;19;20257;-49
2022/11/07 00:25:40;;;;;;;;;;;;;;;4.45;100.00;100527.44;3056868;19;19973;-49
2022/11/07 00:26:42;;;;;;;;;;;;;;;4.53;100.00;100515.69;3056857;19;19951;-50
2022/11/07 00:27:47;;;;;;;;;;;;;;;4.59;100.00;100520.72;3057088;19;20241;-49
2022/11/07 00:28:49;;;;;;;;;;;;;;;4.67;100.00;100513.41;3056650;19;19923;-49
2022/11/07 00:29:53;;;;;;;;;;;;;;;4.75;100.00;100509.59;3056811;19;19931;-48
2022/11/07 00:30:57;;;;;;;;;;;;;;;4.83;100.00;100511.03;3056968;19;19940;-49
2022/11/07 00:32:01;;;;;;;;;;;;;;;4.91;100.00;100500.19;3056818;19;19926;-51
2022/11/07 00:33:03;;;;;;;;;;;;;;;4.99;100.00;100498.09;3055981;19;19944;-50
2022/11/07 00:34:07;;;;;;;;;;;;;;;5.02;100.00;100490.91;3056727;19;19925;-49
2022/11/07 00:35:09;;;;;;;;;;;;;;;5.07;100.00;100491.56;3056567;19;19915;-49
2022/11/07 00:36:21;;;;;;;;;;;;;;;5.14;100.00;100484.28;3056935;19;20322;-48
2022/11/07 00:37:22;;;;;;;;;;;;;;;5.19;100.00;100487.63;3056508;19;19944;-49
2022/11/07 00:38:27;;;;;;;;;;;;;;;5.28;100.00;100478.44;3056681;19;19919;-49
2022/11/07 00:39:29;;;;;;;;;;;;;;;5.32;100.00;100480.03;3056600;19;19941;-49
2022/11/07 00:40:33;;;;;;;;;;;;;;;5.38;100.00;100480.66;3056857;19;19931;-50
2022/11/07 00:41:35;;;;;;;;;;;;;;;5.44;100.00;100475.09;3056678;19;19926;-52
2022/11/07 00:42:39;;;;;;;;;;;;;;;5.52;100.00;100481.88;3055695;19;20434;-49
2022/11/07 00:43:41;;;;;;;;;;;;;;;5.56;100.00;100478.16;3055696;19;19915;-50
2022/11/07 00:44:45;;;;;;;;;;;;;;;5.60;100.00;100475.34;3056591;19;19918;-49
2022/11/07 00:45:47;;;;;;;;;;;;;;;5.66;100.00;100474.25;3056584;19;20299;-51
2022/11/07 00:46:52;;;;;;;;;;;;;;;5.68;100.00;100472.34;3056371;19;19978;-48
2022/11/07 00:47:53;;;;;;;;;;;;;;;5.72;100.00;100463.38;3056345;19;20338;-50
2022/11/07 00:48:58;;;;;;;;;;;;;;;5.80;100.00;100461.25;3056519;19;19923;-48
2022/11/07 00:50:00;;;;;;;;;;;;;;;5.83;100.00;100454.97;3056433;19;19922;-49
2022/11/07 00:51:11;;;;;;;;;;;;;;;5.87;100.00;100456.56;3056541;19;20363;-49
2022/11/07 00:52:16;;;;;;;;;;;;;;;5.92;100.00;100465.19;3056307;19;20919;-49
2022/11/07 00:53:17;;;;;;;;;;;;;;;5.98;100.00;100465.81;3056061;19;20192;-49
2022/11/07 00:54:22;;;;;;;;;;;;;;;6.04;100.00;100469.97;3056078;19;20401;-49
2022/11/07 00:55:24;;;;;;;;;;;;;;;6.07;100.00;100470.69;3056796;19;19926;-50
2022/11/07 00:56:28;;;;;;;;;;;;;;;6.12;100.00;100466.09;3054847;19;19915;-50
2022/11/07 00:57:30;;;;;;;;;;;;;;;6.15;100.00;100465.09;3056620;19;19953;-49
2022/11/07 00:58:34;;;;;;;;;;;;;;;6.20;100.00;100470.16;3056241;19;20235;-50
2022/11/07 00:59:36;;;;;;;;;;;;;;;6.24;100.00;100474.41;3056646;19;19941;-51
2022/11/07 01:00:41;;;;;;;;;;;;;;;6.29;100.00;100481.22;3056217;19;19993;-50
2022/11/07 01:01:45;;;;;;;;;;;;;;;6.34;100.00;100473.06;3056566;19;19930;-50
2022/11/07 01:05:09;;;;;;;;;;;;;;;6.39;100.00;100468.44;3056317;19;20341;-49
2022/11/07 01:05:29;;;;;;;;;;;;;;;6.48;100.00;100473.31;3056592;19;19931;-49
2022/11/07 01:06:35;;;;;;;;;;;;;;;6.53;100.00;100481.91;3056037;19;20015;-50
2022/11/07 01:07:37;;;;;;;;;;;;;;;6.58;100.00;100477.28;3056606;19;19930;-50
2022/11/07 01:08:42;;;;;;;;;;;;;;;6.61;100.00;100477.16;3055787;19;19948;-50
2022/11/07 01:09:47;;;;;;;;;;;;;;;6.66;100.00;100484.88;3056506;19;19945;-50
2022/11/07 01:10:48;;;;;;;;;;;;;;;6.71;100.00;100480.22;3056119;19;19923;-49
2022/11/07 01:11:53;;;;;;;;;;;;;;;6.76;100.00;100487.03;3055131;19;20422;-48
2022/11/07 01:12:54;;;;;;;;;;;;;;;6.80;100.00;100488.63;3055195;19;19938;-49
2022/11/07 01:13:59;;;;;;;;;;;;;;;6.82;100.00;100481.47;3055321;19;19950;-50
2022/11/07 01:15:02;;;;;;;;;;;;;;;6.88;100.00;100484.78;3056125;19;20283;-49
2022/11/07 01:16:07;;;;;;;;;;;;;;;6.93;100.00;100491.56;3056334;19;19915;-51
2022/11/07 01:17:11;;;;;;;;;;;;;;;6.98;100.00;100483.41;3055335;19;19929;-50
2022/11/07 01:18:13;;;;;;;;;;;;;;;6.99;100.00;100477.19;3055543;19;20544;-49
2022/11/07 01:19:18;;;;;;;;;;;;;;;7.02;100.00;100484.97;3055795;19;20002;-50
2022/11/07 01:20:19;;;;;;;;;;;;;;;7.06;100.00;100481.25;3056467;19;19976;-49
2022/11/07 01:21:24;;;;;;;;;;;;;;;7.09;100.00;100479.31;3055432;19;19922;-50
2022/11/07 01:22:28;;;;;;;;;;;;;;;7.13;100.00;100480.88;3056354;19;19930;-49
2022/11/07 01:23:30;;;;;;;;;;;;;;;7.16;100.00;100485.19;3054909;19;19927;-49
2022/11/07 01:24:34;;;;;;;;;;;;;;;7.17;100.00;100486.91;3055177;19;20285;-49
2022/11/07 01:25:37;;;;;;;;;;;;;;;7.19;100.00;100490.34;3056060;19;19934;-49
2022/11/07 01:26:42;;;;;;;;;;;;;;;7.20;100.00;100481.47;3055027;19;20551;-49
2022/11/07 01:27:44;;;;;;;;;;;;;;;7.23;100.00;100491.94;3055213;19;19923;-49
2022/11/07 01:28:48;;;;;;;;;;;;;;;7.26;100.00;100489.09;3055894;19;19927;-49
2022/11/07 01:29:50;;;;;;;;;;;;;;;7.24;100.00;100491.84;3055945;19;20328;-50
2022/11/07 01:30:54;;;;;;;;;;;;;;;7.28;100.00;100489.91;3055198;19;19942;-49
2022/11/07 01:31:56;;;;;;;;;;;;;;;7.31;100.00;100495.06;3055110;19;19919;-50
2022/11/07 01:33:01;;;;;;;;;;;;;;;7.31;100.00;100489.75;3055918;19;19943;-49
2022/11/07 01:34:02;;;;;;;;;;;;;;;7.33;100.00;100492.34;3055313;19;19923;-50
2022/11/07 01:35:07;;;;;;;;;;;;;;;7.33;100.00;100498.53;3054997;19;20510;-49
2022/11/07 01:36:10;;;;;;;;;;;;;;;7.34;100.00;100494.06;3054789;19;19922;-49
2022/11/07 01:37:14;;;;;;;;;;;;;;;7.36;100.00;100492.22;3056075;19;19919;-50
2022/11/07 01:38:16;;;;;;;;;;;;;;;7.39;100.00;100498.22;3054677;19;19915;-49
2022/11/07 01:39:21;;;;;;;;;;;;;;;7.39;100.00;100492.91;3054976;19;19966;-50
2022/11/07 01:40:22;;;;;;;;;;;;;;;7.41;100.00;100493.69;3055738;19;19922;-50
2022/11/07 01:41:31;;;;;;;;;;;;;;;7.42;100.00;100491.91;3055976;19;20262;-49
2022/11/07 01:42:33;;;;;;;;;;;;;;;7.43;100.00;100489.16;3055970;19;19934;-50
2022/11/07 01:43:43;;;;;;;;;;;;;;;7.44;100.00;100496.19;3055908;19;20028;-50
2022/11/07 01:44:50;;;;;;;;;;;;;;;7.45;100.00;100491.75;3056146;19;19926;-49
2022/11/07 01:45:54;;;;;;;;;;;;;;;7.45;100.00;100489.09;3055782;19;19953;-50
2022/11/07 01:46:56;;;;;;;;;;;;;;;7.45;100.00;100491.75;3055565;19;20370;-50
2022/11/07 01:48:01;;;;;;;;;;;;;;;7.46;100.00;100491.69;3055558;19;19941;-50
2022/11/07 01:49:03;;;;;;;;;;;;;;;7.46;100.00;100489.03;3056075;19;19927;-50
2022/11/07 01:50:08;;;;;;;;;;;;;;;7.46;100.00;100494.34;3055221;19;20269;-50
2022/11/07 01:51:09;;;;;;;;;;;;;;;7.46;100.00;100482.84;3055051;19;19937;-50
2022/11/07 01:52:28;;;;;;;;;;;;;;;7.46;100.00;100490.81;3054769;19;20239;-50
2022/11/07 01:53:30;;;;;;;;;;;;;;;7.45;100.00;100492.63;3054893;19;19919;-49
2022/11/07 01:54:39;;;;;;;;;;;;;;;7.44;100.00;100490.91;3054107;19;19922;-50
2022/11/07 01:55:41;;;;;;;;;;;;;;;7.46;100.00;100491.69;3055040;19;19919;-49
2022/11/07 01:56:45;;;;;;;;;;;;;;;7.47;100.00;100490.75;3054781;19;19927;-50
2022/11/07 01:57:48;;;;;;;;;;;;;;;7.47;100.00;100490.75;3054794;19;20291;-49
2022/11/07 01:58:53;;;;;;;;;;;;;;;7.48;100.00;100497.78;3054202;19;19923;-49
2022/11/07 01:59:55;;;;;;;;;;;;;;;7.49;100.00;100483.53;3056005;19;19941;-50
2022/11/07 02:00:59;;;;;;;;;;;;;;;7.50;100.00;100487.91;3055378;19;19950;-49
2022/11/07 02:02:02;;;;;;;;;;;;;;;7.50;100.00;100485.25;3055873;19;19996;-49
2022/11/07 02:03:10;;;;;;;;;;;;;;;7.48;100.00;100476.53;3055498;19;19923;-50
2022/11/07 02:04:13;;;;;;;;;;;;;;;7.47;100.00;100480.13;3054823;19;20250;-50
2022/11/07 02:05:19;;;;;;;;;;;;;;;7.48;100.00;100468.59;3054127;19;19995;-49
2022/11/07 02:06:30;;;;;;;;;;;;;;;7.48;100.00;100473.03;3054807;19;19919;-50
2022/11/07 02:07:34;;;;;;;;;;;;;;;7.48;100.00;100481.00;3054875;19;19914;-49
2022/11/07 02:08:36;;;;;;;;;;;;;;;7.48;100.00;100481.84;3055781;19;20055;-50
2022/11/07 02:09:41;;;;;;;;;;;;;;;7.48;100.00;100481.84;3057821;19;19915;-49
2022/11/07 02:10:42;;;;;;;;;;;;;;;7.49;100.00;100477.38;3057869;19;19942;-50
2022/11/07 02:11:47;;;;;;;;;;;;;;;7.50;100.00;100474.66;3057858;19;19988;-50
2022/11/07 02:12:49;;;;;;;;;;;;;;;7.51;100.00;100484.34;3058929;19;19982;-49
2022/11/07 02:13:53;;;;;;;;;;;;;;;7.50;100.00;100476.44;3057611;19;19923;-50
2022/11/07 02:14:55;;;;;;;;;;;;;;;7.52;100.00;100471.91;3056655;19;19942;-50
2022/11/07 02:16:06;;;;;;;;;;;;;;;7.55;100.00;100477.94;3058765;19;19915;-50
2022/11/07 02:17:08;;;;;;;;;;;;;;;7.55;100.00;100467.31;3058653;19;19930;-50
2022/11/07 02:18:12;;;;;;;;;;;;;;;7.55;100.00;100467.31;3057792;19;20323;-50
2022/11/07 02:19:17;;;;;;;;;;;;;;;7.57;100.00;100462.81;3057686;19;20267;-51
2022/11/07 02:20:22;;;;;;;;;;;;;;;7.58;100.00;100461.00;3057580;19;19915;-50
2022/11/07 02:21:35;;;;;;;;;;;;;;;7.58;100.00;100451.25;3058118;19;19922;-49
2022/11/07 02:22:39;;;;;;;;;;;;;;;7.53;100.00;100453.25;3058816;19;19918;-49
2022/11/07 02:23:45;;;;;;;;;;;;;;;7.55;100.00;100451.41;3058106;19;20345;-50
2022/11/07 02:24:50;;;;;;;;;;;;;;;7.56;100.00;100458.44;3058208;19;19927;-50
2022/11/07 02:25:52;;;;;;;;;;;;;;;7.55;100.00;100454.06;3057653;19;20245;-49
2022/11/07 02:26:57;;;;;;;;;;;;;;;7.53;100.00;100442.63;3057873;19;19942;-49
2022/11/07 02:28:01;;;;;;;;;;;;;;;7.54;100.00;100443.50;3057412;19;19943;-50
2022/11/07 02:29:07;;;;;;;;;;;;;;;7.53;100.00;100439.97;3057558;19;19930;-49
2022/11/07 02:30:08;;;;;;;;;;;;;;;7.51;100.00;100433.03;3057611;19;19914;-49
2022/11/07 02:31:13;;;;;;;;;;;;;;;7.51;100.00;100433.88;3058093;19;19915;-49
2022/11/07 02:32:15;;;;;;;;;;;;;;;7.47;100.00;100432.34;3057946;19;19923;-50
2022/11/07 02:33:20;;;;;;;;;;;;;;;7.47;100.00;100431.47;3057856;19;20015;-49
2022/11/07 02:34:22;;;;;;;;;;;;;;;7.40;100.00;100430.91;3057801;19;20254;-50
2022/11/07 02:35:46;;;;;;;;;;;;;;;7.43;100.00;100420.16;3058426;19;19937;-50
2022/11/07 02:36:48;;;;;;;;;;;;;;;7.38;100.00;100415.97;3058546;19;20335;-50
2022/11/07 02:37:52;;;;;;;;;;;;;;;7.38;100.00;100416.84;3057539;19;19974;-50
2022/11/07 02:38:56;;;;;;;;;;;;;;;7.34;100.00;100411.78;3057286;19;19930;-50
2022/11/07 02:40:01;;;;;;;;;;;;;;;7.28;100.00;100415.59;3058130;19;20313;-50
2022/11/07 02:41:11;;;;;;;;;;;;;;;7.23;100.00;100415.81;3058799;19;19934;-49
2022/11/07 02:42:15;;;;;;;;;;;;;;;7.19;100.00;100421.34;3057516;19;19932;-50
2022/11/07 02:43:18;;;;;;;;;;;;;;;7.11;100.00;100410.25;3057392;19;20001;-50
2022/11/07 02:44:22;;;;;;;;;;;;;;;7.03;100.00;100415.06;3057001;19;19926;-49
2022/11/07 02:45:26;;;;;;;;;;;;;;;6.95;100.00;100411.91;3057665;19;20270;-50
2022/11/07 02:46:30;;;;;;;;;;;;;;;6.88;100.00;100412.19;3057201;19;19974;-50
2022/11/07 02:47:32;;;;;;;;;;;;;;;6.85;100.00;100411.50;3056394;19;19988;-50
2022/11/07 02:48:44;;;;;;;;;;;;;;;6.84;100.00;100418.59;3056916;19;19923;-49
2022/11/07 02:49:46;;;;;;;;;;;;;;;6.79;100.00;100412.63;3058518;19;20046;-49
2022/11/07 02:50:50;;;;;;;;;;;;;;;6.79;100.00;100412.63;3058017;19;20261;-49
2022/11/07 02:51:52;;;;;;;;;;;;;;;6.77;100.00;100408.34;3058387;19;19941;-49
2022/11/07 02:52:57;;;;;;;;;;;;;;;6.75;100.00;100403.13;3056755;19;20261;-50
2022/11/07 02:54:02;;;;;;;;;;;;;;;6.80;100.00;100409.06;3057313;19;19994;-50
2022/11/07 02:55:04;;;;;;;;;;;;;;;6.83;100.00;100403.63;3057573;19;19927;-50
2022/11/07 02:56:09;;;;;;;;;;;;;;;6.88;100.00;100399.91;3057010;19;20372;-49
2022/11/07 02:57:11;;;;;;;;;;;;;;;6.93;100.00;100403.16;3057150;19;19930;-49
2022/11/07 02:58:15;;;;;;;;;;;;;;;6.95;100.00;100396.00;3057987;19;19922;-49
2022/11/07 02:59:17;;;;;;;;;;;;;;;7.02;100.00;100381.50;3058019;19;19982;-50
2022/11/07 03:00:27;;;;;;;;;;;;;;;7.03;100.00;100376.13;3058251;19;19941;-50
2022/11/07 03:01:29;;;;;;;;;;;;;;;7.09;100.00;100378.47;3057913;19;20018;-49
2022/11/07 03:02:33;;;;;;;;;;;;;;;7.15;100.00;100382.63;3057973;19;19919;-49
2022/11/07 03:03:37;;;;;;;;;;;;;;;7.19;100.00;100373.56;3057640;19;19949;-50
2022/11/07 03:04:42;;;;;;;;;;;;;;;7.24;100.00;100383.00;3057825;19;19933;-49
2022/11/07 03:05:49;;;;;;;;;;;;;;;7.27;100.00;100366.09;3057924;19;20637;-49
2022/11/07 03:06:54;;;;;;;;;;;;;;;7.28;100.00;100369.59;3058253;19;19923;-50
2022/11/07 03:07:56;;;;;;;;;;;;;;;7.28;100.00;100358.97;3057651;19;20572;-50
2022/11/07 03:09:00;;;;;;;;;;;;;;;7.27;100.00;100349.28;3057971;19;19927;-49
2022/11/07 03:10:02;;;;;;;;;;;;;;;7.22;100.00;100357.50;3057500;19;19948;-49
2022/11/07 03:11:06;;;;;;;;;;;;;;;7.21;100.00;100361.97;3057833;19;20217;-50
2022/11/07 03:12:08;;;;;;;;;;;;;;;7.15;100.00;100356.94;3057277;19;20384;-49
2022/11/07 03:13:13;;;;;;;;;;;;;;;7.11;100.00;100355.41;3056857;19;19982;-50
2022/11/07 03:14:15;;;;;;;;;;;;;;;7.13;100.00;100352.63;3058077;19;19915;-49
2022/11/07 03:15:19;;;;;;;;;;;;;;;7.07;100.00;100363.56;3057248;19;19922;-49
2022/11/07 03:16:21;;;;;;;;;;;;;;;7.06;100.00;100357.41;3058069;19;19918;-49
2022/11/07 03:17:26;;;;;;;;;;;;;;;7.07;100.00;100360.91;3056572;19;19919;-49
2022/11/07 03:18:27;;;;;;;;;;;;;;;7.07;100.00;100352.94;3057379;19;20330;-49
2022/11/07 03:19:32;;;;;;;;;;;;;;;7.09;100.00;100356.41;3056821;19;19919;-50
2022/11/07 03:20:34;;;;;;;;;;;;;;;7.04;100.00;100353.09;3058055;19;20029;-49
2022/11/07 03:21:38;;;;;;;;;;;;;;;7.03;100.00;100335.47;3057615;19;20379;-49
2022/11/07 03:22:40;;;;;;;;;;;;;;;7.04;100.00;100342.47;3057869;19;19918;-50
2022/11/07 03:23:44;;;;;;;;;;;;;;;7.02;100.00;100347.88;3057081;19;19945;-50
2022/11/07 03:24:46;;;;;;;;;;;;;;;7.01;100.00;100342.63;3057940;19;19949;-49
2022/11/07 03:25:50;;;;;;;;;;;;;;;7.02;100.00;100344.34;3057797;19;19931;-49
2022/11/07 03:26:52;;;;;;;;;;;;;;;7.00;100.00;100346.25;3057895;19;19911;-50
2022/11/07 03:27:58;;;;;;;;;;;;;;;6.96;100.00;100339.34;3057534;19;19919;-51
2022/11/07 03:29:00;;;;;;;;;;;;;;;6.97;100.00;100341.09;3057734;19;19949;-49
2022/11/07 03:30:04;;;;;;;;;;;;;;;7.02;100.00;100347.00;3057178;19;20333;-49
2022/11/07 03:31:06;;;;;;;;;;;;;;;7.04;100.00;100339.84;3057956;19;19954;-49
2022/11/07 03:32:11;;;;;;;;;;;;;;;7.08;100.00;100344.94;3057122;19;19918;-50
2022/11/07 03:33:12;;;;;;;;;;;;;;;7.15;100.00;100348.13;3057641;19;20006;-49
2022/11/07 03:34:17;;;;;;;;;;;;;;;7.18;100.00;100340.00;3057616;19;19919;-50
2022/11/07 03:35:20;;;;;;;;;;;;;;;7.24;100.00;100345.03;3057451;19;20232;-50
2022/11/07 03:36:24;;;;;;;;;;;;;;;7.31;100.00;100354.38;3057404;19;19941;-49
2022/11/07 03:37:26;;;;;;;;;;;;;;;7.35;100.00;100345.34;3057702;19;19919;-50
2022/11/07 03:38:30;;;;;;;;;;;;;;;7.39;100.00;100352.19;2914949;19;19926;-50
2022/11/07 03:39:32;;;;;;;;;;;;;;;7.46;100.00;100358.06;3058001;19;19921;-50
2022/11/07 03:40:37;;;;;;;;;;;;;;;7.49;100.00;100350.78;3057941;19;19919;-49
2022/11/07 03:41:38;;;;;;;;;;;;;;;7.52;100.00;100350.63;3058617;19;19919;-50
2022/11/07 03:42:43;;;;;;;;;;;;;;;7.55;100.00;100350.50;3058043;19;20640;-48
2022/11/07 03:43:45;;;;;;;;;;;;;;;7.65;100.00;100344.69;3053271;19;19994;-50
2022/11/07 03:44:50;;;;;;;;;;;;;;;7.71;100.00;100344.38;3055730;19;20597;-50
2022/11/07 03:45:52;;;;;;;;;;;;;;;7.74;100.00;100345.06;3057525;19;19930;-50
2022/11/07 03:46:57;;;;;;;;;;;;;;;7.79;100.00;100347.50;3056856;19;19929;-51
2022/11/07 03:47:59;;;;;;;;;;;;;;;7.82;100.00;100342.88;3057709;19;19983;-50
2022/11/07 03:49:04;;;;;;;;;;;;;;;7.85;100.00;100342.72;3057988;19;19919;-50
2022/11/07 03:50:06;;;;;;;;;;;;;;;7.90;100.00;100345.13;3059203;19;19954;-50
2022/11/07 03:51:11;;;;;;;;;;;;;;;7.94;100.00;100339.59;3057538;19;20592;-50
2022/11/07 03:52:13;;;;;;;;;;;;;;;7.97;100.00;100341.19;3058265;19;20333;-50
2022/11/07 03:53:17;;;;;;;;;;;;;;;8.01;100.00;100340.09;3055839;19;19946;-50
2022/11/07 03:54:26;;;;;;;;;;;;;;;8.05;100.00;100343.47;3057149;19;19919;-50
2022/11/07 03:55:30;;;;;;;;;;;;;;;8.07;100.00;100347.75;3056885;19;19919;-50
2022/11/07 03:56:32;;;;;;;;;;;;;;;8.10;100.00;100347.56;3057141;19;19956;-49
2022/11/07 03:57:37;;;;;;;;;;;;;;;8.13;100.00;100347.41;3056978;19;20040;-50
2022/11/07 03:58:39;;;;;;;;;;;;;;;8.16;100.00;100352.56;3058668;19;20245;-50
2022/11/07 03:59:43;;;;;;;;;;;;;;;8.16;100.00;100352.56;3056803;19;19922;-51
2022/11/07 04:00:47;;;;;;;;;;;;;;;8.21;100.00;100355.81;3057860;19;19919;-50
2022/11/07 04:01:49;;;;;;;;;;;;;;;8.22;100.00;100349.56;3057029;19;19946;-50
2022/11/07 04:02:54;;;;;;;;;;;;;;;8.25;100.00;100356.53;3057145;19;19922;-49
2022/11/07 04:03:56;;;;;;;;;;;;;;;8.27;100.00;100350.19;3056590;19;20023;-51
2022/11/07 04:05:00;;;;;;;;;;;;;;;8.30;100.00;100350.03;3056927;19;20407;-50
2022/11/07 04:06:02;;;;;;;;;;;;;;;8.32;100.00;100341.16;3056883;19;20695;-50
2022/11/07 04:07:06;;;;;;;;;;;;;;;8.33;100.00;100349.06;3056844;19;19919;-50
2022/11/07 04:08:08;;;;;;;;;;;;;;;8.35;100.00;100351.59;3056876;19;19919;-50
2022/11/07 04:09:13;;;;;;;;;;;;;;;8.37;100.00;100349.72;3057013;19;20294;-50
2022/11/07 04:10:14;;;;;;;;;;;;;;;8.40;100.00;100344.25;3058230;19;19937;-50
2022/11/07 04:17:44;;;;;;;;;;;;;;;8.49;100.00;100339.28;3057445;19;19949;-49
2022/11/07 04:18:46;;;;;;;;;;;;;;;8.51;100.00;100345.38;3057449;19;19941;-50
2022/11/07 04:19:51;;;;;;;;;;;;;;;8.53;100.00;100342.63;3058017;19;19923;-50
2022/11/07 04:20:52;;;;;;;;;;;;;;;8.55;100.00;100335.44;3057086;19;19919;-50
2022/11/07 04:21:57;;;;;;;;;;;;;;;8.58;100.00;100344.06;3057057;19;20049;-50
2022/11/07 04:22:59;;;;;;;;;;;;;;;8.59;100.00;100334.28;3057237;19;19923;-50
2022/11/07 04:24:03;;;;;;;;;;;;;;;8.60;100.00;100336.88;3056758;19;19945;-50
2022/11/07 04:25:05;;;;;;;;;;;;;;;8.61;100.00;100338.59;3056989;19;19923;-50
2022/11/07 04:28:43;;;;;;;;;;;;;;;8.68;100.00;100341.78;3056656;19;19942;-50
2022/11/07 04:29:45;;;;;;;;;;;;;;;8.69;100.00;100343.50;3056712;19;19918;-51
2022/11/07 04:30:49;;;;;;;;;;;;;;;8.70;100.00;100341.66;3055699;19;19919;-50
2022/11/07 04:31:51;;;;;;;;;;;;;;;8.71;100.00;100338.94;3057441;19;20447;-51
2022/11/07 04:32:56;;;;;;;;;;;;;;;8.74;100.00;100352.06;3056606;19;20006;-50
2022/11/07 04:34:01;;;;;;;;;;;;;;;8.75;100.00;100351.13;3056458;19;19918;-50
2022/11/07 04:35:03;;;;;;;;;;;;;;;8.77;100.00;100349.25;3056447;19;19923;-50
2022/11/07 04:36:07;;;;;;;;;;;;;;;8.79;100.00;100343.84;3056590;19;19929;-51
2022/11/07 04:37:11;;;;;;;;;;;;;;;8.80;100.00;100349.06;3056494;19;19919;-50
2022/11/07 04:38:16;;;;;;;;;;;;;;;8.82;100.00;100351.63;3056998;19;19919;-50
2022/11/07 04:39:18;;;;;;;;;;;;;;;8.84;100.00;100339.94;3056524;19;19914;-50
2022/11/07 04:40:22;;;;;;;;;;;;;;;8.86;100.00;100345.19;3056543;19;19919;-50
2022/11/07 04:41:24;;;;;;;;;;;;;;;8.87;100.00;100339.78;3056556;19;20342;-51
2022/11/07 04:42:28;;;;;;;;;;;;;;;8.88;100.00;100332.66;3056932;19;19919;-50
2022/11/07 04:43:33;;;;;;;;;;;;;;;8.89;100.00;100332.56;3056503;19;19926;-50
2022/11/07 04:44:35;;;;;;;;;;;;;;;8.90;100.00;100342.28;3056561;19;19994;-50
2022/11/07 04:45:39;;;;;;;;;;;;;;;8.90;100.00;100334.28;3056219;19;19987;-50
2022/11/07 04:46:41;;;;;;;;;;;;;;;8.91;100.00;100340.47;3056776;19;19923;-50
2022/11/07 04:47:46;;;;;;;;;;;;;;;8.92;100.00;100343.06;3056624;19;19991;-51
2022/11/07 04:48:50;;;;;;;;;;;;;;;8.94;100.00;100335.81;3056461;19;20307;-50
2022/11/07 04:49:52;;;;;;;;;;;;;;;8.94;100.00;100335.81;3055309;19;19984;-50
2022/11/07 04:50:56;;;;;;;;;;;;;;;8.95;100.00;100332.22;3055722;19;19926;-50
2022/11/07 04:51:58;;;;;;;;;;;;;;;8.96;100.00;100333.94;3056505;19;19915;-50
2022/11/07 04:53:03;;;;;;;;;;;;;;;8.92;100.00;100321.75;3055808;19;20322;-50
2022/11/07 04:54:05;;;;;;;;;;;;;;;8.99;100.00;100322.25;3055936;19;19935;-51
2022/11/07 04:55:10;;;;;;;;;;;;;;;8.98;100.00;100321.41;3055529;19;19926;-49
2022/11/07 04:56:11;;;;;;;;;;;;;;;8.98;100.00;100318.72;3057843;19;19919;-50
2022/11/07 04:57:16;;;;;;;;;;;;;;;8.97;100.00;100309.03;3055374;19;19919;-50
2022/11/07 04:58:20;;;;;;;;;;;;;;;8.99;100.00;100312.47;3056082;19;19926;-50
2022/11/07 04:59:22;;;;;;;;;;;;;;;8.99;100.00;100316.94;3056007;19;20523;-50
2022/11/07 05:00:28;;;;;;;;;;;;;;;8.98;100.00;100316.06;3056593;19;20249;-51
2022/11/07 05:01:29;;;;;;;;;;;;;;;8.99;100.00;100323.13;3057763;19;19918;-51
2022/11/07 05:02:34;;;;;;;;;;;;;;;8.98;100.00;100324.06;3055370;19;19915;-50
2022/11/07 05:03:36;;;;;;;;;;;;;;;8.99;100.00;100323.13;3056328;19;19931;-51
2022/11/07 05:04:45;;;;;;;;;;;;;;;9.00;100.00;100335.47;3056529;19;20366;-50
2022/11/07 05:05:46;;;;;;;;;;;;;;;8.99;100.00;100328.44;3056280;19;19922;-50
2022/11/07 05:06:51;;;;;;;;;;;;;;;8.99;100.00;100323.13;3056174;19;19918;-50
2022/11/07 05:07:53;;;;;;;;;;;;;;;8.99;100.00;100317.78;3056371;19;20042;-50
2022/11/07 05:08:57;;;;;;;;;;;;;;;8.99;100.00;100325.78;3056089;19;20456;-49
2022/11/07 05:09:59;;;;;;;;;;;;;;;9.01;100.00;100315.91;3056553;19;19945;-50
2022/11/07 05:11:03;;;;;;;;;;;;;;;8.99;100.00;100317.78;3056463;19;19926;-50
2022/11/07 05:12:05;;;;;;;;;;;;;;;9.00;100.00;100314.19;3056633;19;19923;-50
2022/11/07 05:13:10;;;;;;;;;;;;;;;9.03;100.00;100318.47;3056200;19;19922;-50
2022/11/07 05:14:12;;;;;;;;;;;;;;;9.05;100.00;100318.41;3056339;19;19922;-50
2022/11/07 05:15:18;;;;;;;;;;;;;;;9.07;100.00;100316.47;3056454;19;19930;-50
2022/11/07 05:16:19;;;;;;;;;;;;;;;9.08;100.00;100313.72;3055450;19;19922;-50
2022/11/07 05:17:24;;;;;;;;;;;;;;;9.09;100.00;100322.56;3055368;19;19926;-50
2022/11/07 05:18:31;;;;;;;;;;;;;;;9.10;100.00;100303.00;3055968;19;19928;-50
2022/11/07 05:19:33;;;;;;;;;;;;;;;9.11;100.00;100310.91;3056600;19;20349;-50
2022/11/07 05:20:38;;;;;;;;;;;;;;;9.11;100.00;100315.38;3055745;19;20310;-50
2022/11/07 05:21:40;;;;;;;;;;;;;;;9.10;100.00;100305.66;3055936;19;19923;-50
2022/11/07 05:24:01;;;;;;;;;;;;;;;9.10;100.00;100300.34;3055221;19;20377;-51
2022/11/07 05:25:03;;;;;;;;;;;;;;;9.05;100.00;100284.66;3055486;19;19927;-50
2022/11/07 05:26:07;;;;;;;;;;;;;;;9.11;100.00;100294.94;3055941;19;19941;-50
2022/11/07 05:27:16;;;;;;;;;;;;;;;9.12;100.00;100301.97;3055909;19;20338;-50
2022/11/07 05:28:20;;;;;;;;;;;;;;;9.12;100.00;100309.09;3055781;19;19923;-50
2022/11/07 05:29:34;;;;;;;;;;;;;;;9.13;100.00;100306.34;3055864;19;19922;-50
2022/11/07 05:30:39;;;;;;;;;;;;;;;9.14;100.00;100299.22;3055866;19;19918;-50
2022/11/07 05:31:41;;;;;;;;;;;;;;;9.14;100.00;100300.06;3055262;19;19978;-50
2022/11/07 05:32:45;;;;;;;;;;;;;;;9.17;100.00;100312.34;3056140;19;19926;-50
2022/11/07 05:33:50;;;;;;;;;;;;;;;9.19;100.00;100310.44;3054562;19;19930;-50
2022/11/07 05:34:52;;;;;;;;;;;;;;;9.16;100.00;100298.19;3055198;19;19919;-50
2022/11/07 05:35:56;;;;;;;;;;;;;;;9.17;100.00;100307.03;3055797;19;19931;-50
2022/11/07 05:36:58;;;;;;;;;;;;;;;9.17;100.00;100304.38;3056184;19;19931;-50
2022/11/07 05:38:03;;;;;;;;;;;;;;;9.18;100.00;100306.06;3056018;19;20325;-51
2022/11/07 05:39:07;;;;;;;;;;;;;;;9.20;100.00;100305.03;3056104;19;20222;-50